createdAt,value
2024-03-04T00:00:25.792Z,83.00
2024-03-04T00:00:58.448Z,83.67
2024-03-04T00:01:31.056Z,82.67
2024-03-04T00:02:03.843Z,81.33
2024-03-04T00:02:36.481Z,81.00
2024-03-04T00:03:09.022Z,81.00
2024-03-04T00:03:41.532Z,82.00
2024-03-04T00:04:14.240Z,82.00
2024-03-04T00:04:46.769Z,82.67
2024-03-04T00:05:19.274Z,83.00
2024-03-04T00:05:51.780Z,83.00
2024-03-04T00:06:24.309Z,84.00
2024-03-04T00:06:56.801Z,84.00
2024-03-04T00:07:30.589Z,84.00
2024-03-04T00:08:04.424Z,83.00
2024-03-04T00:08:36.910Z,83.00
2024-03-04T00:09:09.883Z,83.67
2024-03-04T00:09:42.541Z,84.00
2024-03-04T00:10:15.080Z,84.00
2024-03-04T00:10:48.079Z,84.00
2024-03-04T00:11:21.361Z,83.67
2024-03-04T00:11:53.945Z,82.33
2024-03-04T00:12:26.461Z,82.00
2024-03-04T00:12:59.692Z,82.00
2024-03-04T00:13:32.410Z,82.00
2024-03-04T00:14:05.054Z,82.00
2024-03-04T00:14:37.727Z,82.00
2024-03-04T00:15:10.452Z,81.00
2024-03-04T00:15:43.573Z,80.00
2024-03-04T00:16:16.127Z,79.00
2024-03-04T00:16:52.085Z,77.33
2024-03-04T00:17:25.168Z,72.00
2024-03-04T00:17:57.884Z,68.33
2024-03-04T00:18:30.498Z,66.00
2024-03-04T00:19:03.357Z,63.67
2024-03-04T00:19:37.709Z,63.00
2024-03-04T00:20:10.862Z,63.00
2024-03-04T00:20:43.370Z,62.33
2024-03-04T00:21:16.505Z,60.67
2024-03-04T00:21:49.509Z,59.00
2024-03-04T00:22:22.134Z,60.00
2024-03-04T00:22:54.661Z,59.67
2024-03-04T00:23:27.425Z,60.00
2024-03-04T00:23:59.893Z,60.00
2024-03-04T00:24:33.397Z,61.33
2024-03-04T00:25:07.209Z,62.00
2024-03-04T00:25:39.978Z,62.00
2024-03-04T00:26:13.820Z,62.00
2024-03-04T00:26:46.351Z,62.00
2024-03-04T00:27:18.886Z,62.00
2024-03-04T00:27:54.220Z,61.33
2024-03-04T00:28:26.774Z,59.00
2024-03-04T00:28:59.311Z,57.33
2024-03-04T00:29:31.775Z,57.00
2024-03-04T00:30:05.971Z,57.00
2024-03-04T00:30:39.041Z,57.00
2024-03-04T00:31:13.649Z,56.33
2024-03-04T00:31:46.358Z,56.33
2024-03-04T00:32:18.839Z,57.00
2024-03-04T00:32:52.572Z,57.67
2024-03-04T00:33:25.178Z,58.00
2024-03-04T00:33:58.872Z,58.00
2024-03-04T00:34:31.537Z,58.33
2024-03-04T00:35:09.996Z,59.00
2024-03-04T00:35:42.607Z,60.00
2024-03-04T00:36:15.174Z,60.00
2024-03-04T00:36:47.649Z,60.00
2024-03-04T00:37:20.214Z,60.00
2024-03-04T00:37:52.829Z,60.00
2024-03-04T00:38:25.301Z,60.00
2024-03-04T00:38:58.369Z,60.00
2024-03-04T00:39:30.920Z,60.00
2024-03-04T00:40:07.832Z,60.00
2024-03-04T00:40:40.426Z,61.00
2024-03-04T00:41:13.142Z,61.00
2024-03-04T00:41:45.720Z,61.00
2024-03-04T00:42:18.889Z,60.33
2024-03-04T00:42:51.438Z,59.33
2024-03-04T00:43:24.022Z,59.00
2024-03-04T00:43:56.578Z,58.33
2024-03-04T00:44:29.324Z,57.67
2024-03-04T00:45:02.094Z,57.00
2024-03-04T00:45:34.573Z,57.00
2024-03-04T00:46:07.143Z,57.00
2024-03-04T00:46:43.127Z,57.00
2024-03-04T00:47:15.771Z,57.00
2024-03-04T00:47:48.260Z,57.00
2024-03-04T00:48:20.778Z,58.33
2024-03-04T00:48:53.716Z,59.33
2024-03-04T00:49:27.422Z,60.33
2024-03-04T00:49:59.986Z,62.33
2024-03-04T00:50:33.072Z,63.67
2024-03-04T00:51:05.726Z,64.00
2024-03-04T00:51:38.238Z,64.00
2024-03-04T00:52:11.588Z,63.67
2024-03-04T00:52:44.176Z,63.00
2024-03-04T00:53:17.460Z,63.00
2024-03-04T00:53:50.000Z,63.00
2024-03-04T00:54:22.486Z,63.00
2024-03-04T00:54:55.005Z,63.00
2024-03-04T00:55:27.599Z,63.00
2024-03-04T00:56:00.115Z,63.00
2024-03-04T00:56:33.130Z,63.00
2024-03-04T00:57:08.490Z,63.00
2024-03-04T00:57:41.089Z,62.33
2024-03-04T00:58:13.664Z,62.00
2024-03-04T00:58:46.154Z,61.33
2024-03-04T00:59:18.785Z,60.33
2024-03-04T00:59:51.329Z,60.00
2024-03-04T01:00:24.669Z,59.00
2024-03-04T01:00:59.121Z,59.00
2024-03-04T01:01:31.900Z,58.33
2024-03-04T01:02:07.671Z,58.00
2024-03-04T01:02:40.739Z,58.00
2024-03-04T01:03:13.298Z,57.00
2024-03-04T01:03:45.902Z,57.00
2024-03-04T01:04:18.408Z,57.00
2024-03-04T01:04:50.980Z,57.00
2024-03-04T01:05:23.510Z,56.00
2024-03-04T01:05:56.143Z,54.67
2024-03-04T01:06:28.947Z,53.33
2024-03-04T01:07:01.504Z,52.33
2024-03-04T01:07:34.018Z,51.67
2024-03-04T01:08:06.842Z,51.00
2024-03-04T01:08:39.477Z,51.00
2024-03-04T01:09:12.310Z,51.00
2024-03-04T01:09:44.778Z,50.00
2024-03-04T01:10:17.326Z,50.00
2024-03-04T01:10:49.918Z,50.00
2024-03-04T01:11:22.466Z,50.00
2024-03-04T01:11:54.978Z,50.67
2024-03-04T01:12:27.943Z,51.00
2024-03-04T01:13:00.446Z,51.00
2024-03-04T01:13:34.143Z,52.00
2024-03-04T01:14:06.818Z,52.00
2024-03-04T01:14:41.969Z,52.00
2024-03-04T01:15:14.892Z,52.67
2024-03-04T01:15:49.842Z,53.00
2024-03-04T01:16:23.407Z,53.00
2024-03-04T01:16:55.973Z,53.33
2024-03-04T01:17:29.430Z,54.00
2024-03-04T01:18:02.399Z,54.00
2024-03-04T01:18:34.943Z,53.33
2024-03-04T01:19:07.605Z,53.00
2024-03-04T01:19:46.860Z,53.00
2024-03-04T01:20:21.594Z,53.00
2024-03-04T01:20:55.388Z,53.00
2024-03-04T01:21:27.900Z,53.33
2024-03-04T01:22:00.455Z,54.00
2024-03-04T01:22:33.104Z,54.00
2024-03-04T01:23:06.422Z,54.00
2024-03-04T01:23:38.943Z,54.00
2024-03-04T01:24:12.767Z,54.00
2024-03-04T01:24:46.696Z,54.00
2024-03-04T01:25:19.254Z,54.00
2024-03-04T01:25:51.773Z,55.00
2024-03-04T01:26:24.484Z,55.00
2024-03-04T01:26:57.816Z,55.00
2024-03-04T01:27:30.748Z,55.00
2024-03-04T01:28:03.328Z,55.00
2024-03-04T01:28:35.915Z,55.00
2024-03-04T01:29:09.698Z,55.33
2024-03-04T01:29:44.915Z,56.67
2024-03-04T01:30:17.454Z,57.67
2024-03-04T01:30:56.475Z,58.67
2024-03-04T01:31:30.071Z,62.00
2024-03-04T01:32:03.796Z,64.33
2024-03-04T01:32:37.826Z,65.67
2024-03-04T01:33:11.135Z,66.67
2024-03-04T01:33:43.663Z,67.00
2024-03-04T01:34:17.944Z,67.00
2024-03-04T01:34:50.660Z,66.33
2024-03-04T01:35:24.322Z,67.00
2024-03-04T01:35:56.808Z,66.33
2024-03-04T01:36:30.609Z,66.00
2024-03-04T01:37:03.140Z,66.00
2024-03-04T01:37:36.131Z,66.00
2024-03-04T01:38:08.844Z,66.00
2024-03-04T01:38:42.301Z,65.33
2024-03-04T01:39:16.553Z,65.00
2024-03-04T01:39:49.470Z,65.00
2024-03-04T01:40:22.034Z,65.00
2024-03-04T01:40:55.700Z,65.00
2024-03-04T01:41:28.653Z,65.00
2024-03-04T01:42:02.468Z,65.00
2024-03-04T01:42:35.106Z,65.00
2024-03-04T01:43:07.678Z,65.00
2024-03-04T01:43:40.416Z,66.00
2024-03-04T01:44:12.902Z,66.00
2024-03-04T01:44:45.430Z,67.00
2024-03-04T01:45:28.516Z,68.00
2024-03-04T01:46:01.508Z,68.00
2024-03-04T01:46:35.125Z,69.33
2024-03-04T01:47:11.521Z,70.67
2024-03-04T01:47:44.079Z,72.00
2024-03-04T01:48:16.686Z,72.67
2024-03-04T01:48:49.317Z,74.33
2024-03-04T01:49:21.847Z,76.00
2024-03-04T01:49:55.460Z,75.33
2024-03-04T01:50:34.686Z,75.00
2024-03-04T01:51:07.992Z,74.33
2024-03-04T01:51:40.581Z,73.33
2024-03-04T01:52:14.256Z,72.33
2024-03-04T01:52:49.040Z,71.33
2024-03-04T01:53:23.555Z,70.00
2024-03-04T01:53:56.124Z,69.00
2024-03-04T01:54:31.026Z,68.33
2024-03-04T01:55:04.116Z,68.00
2024-03-04T01:55:46.534Z,68.00
2024-03-04T01:56:19.137Z,68.00
2024-03-04T01:56:52.408Z,68.00
2024-03-04T01:57:24.976Z,67.00
2024-03-04T01:57:57.913Z,67.00
2024-03-04T01:58:32.221Z,66.67
2024-03-04T01:59:05.535Z,66.00
2024-03-04T01:59:40.319Z,66.00
2024-03-04T02:00:14.436Z,66.00
2024-03-04T02:00:50.509Z,66.00
2024-03-04T02:01:23.315Z,66.67
2024-03-04T02:01:56.090Z,68.33
2024-03-04T02:02:30.392Z,69.33
2024-03-04T02:03:03.519Z,71.33
2024-03-04T02:03:36.998Z,72.00
2024-03-04T02:04:10.838Z,72.00
2024-03-04T02:04:44.079Z,72.00
2024-03-04T02:05:16.882Z,72.00
2024-03-04T02:05:49.990Z,72.00
2024-03-04T02:06:22.761Z,72.00
2024-03-04T02:06:55.353Z,73.00
2024-03-04T02:07:27.894Z,73.00
2024-03-04T02:08:01.137Z,73.00
2024-03-04T02:08:33.655Z,73.00
2024-03-04T02:09:08.749Z,72.33
2024-03-04T02:09:44.099Z,72.00
2024-03-04T02:10:19.416Z,72.00
2024-03-04T02:10:53.223Z,72.00
2024-03-04T02:11:28.094Z,72.00
2024-03-04T02:12:00.784Z,72.00
2024-03-04T02:12:36.730Z,72.00
2024-03-04T02:13:09.666Z,72.00
2024-03-04T02:13:42.840Z,72.33
2024-03-04T02:14:16.515Z,73.00
2024-03-04T02:14:49.333Z,73.00
2024-03-04T02:15:21.822Z,74.33
2024-03-04T02:15:54.283Z,76.00
2024-03-04T02:16:26.807Z,78.00
2024-03-04T02:16:59.397Z,77.00
2024-03-04T02:17:32.090Z,77.00
2024-03-04T02:18:08.393Z,77.00
2024-03-04T02:18:41.183Z,76.33
2024-03-04T02:19:19.575Z,76.00
2024-03-04T02:19:52.663Z,76.00
2024-03-04T02:20:26.062Z,76.00
2024-03-04T02:21:04.462Z,76.00
2024-03-04T02:21:43.581Z,76.00
2024-03-04T02:22:17.873Z,76.00
2024-03-04T02:22:50.951Z,76.67
2024-03-04T02:23:23.446Z,77.33
2024-03-04T02:23:55.978Z,79.00
2024-03-04T02:24:28.490Z,81.33
2024-03-04T02:25:01.008Z,82.00
2024-03-04T02:25:37.476Z,82.00
2024-03-04T02:26:10.014Z,82.00
2024-03-04T02:26:44.059Z,82.00
2024-03-04T02:27:17.113Z,82.00
2024-03-04T02:27:50.153Z,81.67
2024-03-04T02:28:23.768Z,81.00
2024-03-04T02:28:56.339Z,81.00
2024-03-04T02:29:29.358Z,81.00
2024-03-04T02:30:05.539Z,81.00
2024-03-04T02:30:38.045Z,81.00
2024-03-04T02:31:11.719Z,81.00
2024-03-04T02:31:44.848Z,80.67
2024-03-04T02:32:20.754Z,81.00
2024-03-04T02:32:53.312Z,81.00
2024-03-04T02:33:27.303Z,81.00
2024-03-04T02:33:59.810Z,81.00
2024-03-04T02:34:32.550Z,81.00
2024-03-04T02:35:05.769Z,81.00
2024-03-04T02:35:38.736Z,81.00
2024-03-04T02:36:11.582Z,81.00
2024-03-04T02:36:44.578Z,81.67
2024-03-04T02:37:17.157Z,83.33
2024-03-04T02:37:49.682Z,84.00
2024-03-04T02:38:23.192Z,84.00
2024-03-04T02:38:56.073Z,84.00
2024-03-04T02:39:29.744Z,84.00
2024-03-04T02:40:03.859Z,84.00
2024-03-04T02:40:36.563Z,83.67
2024-03-04T02:41:09.763Z,84.00
2024-03-04T02:41:42.270Z,88.00
2024-03-04T02:42:14.795Z,97.67
2024-03-04T02:42:47.318Z,100.67
2024-03-04T02:43:19.873Z,101.00
2024-03-04T02:43:52.457Z,99.67
2024-03-04T02:44:25.256Z,98.33
2024-03-04T02:44:58.204Z,97.67
2024-03-04T02:45:30.937Z,97.33
2024-03-04T02:46:03.513Z,99.00
2024-03-04T02:46:36.538Z,101.33
2024-03-04T02:47:09.038Z,101.67
2024-03-04T02:47:41.579Z,101.00
2024-03-04T02:48:14.365Z,101.33
2024-03-04T02:48:48.196Z,102.00
2024-03-04T02:49:20.793Z,102.00
2024-03-04T02:49:53.356Z,102.00
2024-03-04T02:50:26.180Z,103.33
2024-03-04T02:50:58.703Z,106.00
2024-03-04T02:51:31.873Z,108.67
2024-03-04T02:52:04.730Z,107.33
2024-03-04T02:52:37.749Z,106.33
2024-03-04T02:53:10.936Z,105.67
2024-03-04T02:53:43.448Z,105.00
2024-03-04T02:54:16.107Z,105.00
2024-03-04T02:54:48.592Z,106.00
2024-03-04T02:55:21.165Z,107.00
2024-03-04T02:55:53.694Z,106.00
2024-03-04T02:56:26.171Z,106.00
2024-03-04T02:56:58.655Z,105.00
2024-03-04T02:57:31.274Z,106.33
2024-03-04T02:58:05.022Z,112.00
2024-03-04T02:58:37.540Z,115.00
2024-03-04T02:59:10.084Z,113.33
2024-03-04T02:59:44.082Z,112.00
2024-03-04T03:00:17.084Z,112.00
2024-03-04T03:00:49.704Z,111.00
2024-03-04T03:01:22.332Z,111.00
2024-03-04T03:01:54.930Z,110.33
2024-03-04T03:02:27.488Z,110.00
2024-03-04T03:03:01.506Z,109.00
2024-03-04T03:03:34.001Z,109.00
2024-03-04T03:04:06.539Z,108.00
2024-03-04T03:04:39.097Z,108.00
2024-03-04T03:05:11.988Z,108.00
2024-03-04T03:05:44.513Z,108.67
2024-03-04T03:06:16.994Z,110.33
2024-03-04T03:06:49.551Z,115.00
2024-03-04T03:07:22.072Z,122.00
2024-03-04T03:07:55.298Z,126.00
2024-03-04T03:08:27.781Z,127.33
2024-03-04T03:09:00.273Z,125.33
2024-03-04T03:09:32.768Z,124.00
2024-03-04T03:10:06.312Z,124.00
2024-03-04T03:10:40.955Z,123.00
2024-03-04T03:11:14.313Z,122.00
2024-03-04T03:11:46.850Z,121.33
2024-03-04T03:12:19.365Z,121.00
2024-03-04T03:12:52.067Z,121.00
2024-03-04T03:13:24.645Z,121.00
2024-03-04T03:13:58.957Z,120.67
2024-03-04T03:14:31.489Z,120.00
2024-03-04T03:15:04.201Z,120.33
2024-03-04T03:15:36.730Z,120.33
2024-03-04T03:16:21.473Z,120.00
2024-03-04T03:16:54.310Z,120.67
2024-03-04T03:17:27.379Z,120.00
2024-03-04T03:18:01.535Z,120.00
2024-03-04T03:18:35.281Z,119.33
2024-03-04T03:19:07.903Z,119.00
2024-03-04T03:19:40.482Z,119.00
2024-03-04T03:20:19.610Z,119.00
2024-03-04T03:20:52.859Z,119.00
2024-03-04T03:21:25.374Z,119.33
2024-03-04T03:21:57.966Z,120.00
2024-03-04T03:22:30.913Z,120.00
2024-03-04T03:23:03.504Z,120.00
2024-03-04T03:23:37.252Z,120.00
2024-03-04T03:24:09.838Z,120.00
2024-03-04T03:24:42.973Z,119.00
2024-03-04T03:25:16.416Z,118.67
2024-03-04T03:25:49.077Z,117.67
2024-03-04T03:26:23.142Z,115.67
2024-03-04T03:26:55.718Z,112.00
2024-03-04T03:27:30.072Z,109.67
2024-03-04T03:28:02.601Z,106.33
2024-03-04T03:28:35.234Z,102.67
2024-03-04T03:29:07.762Z,102.00
2024-03-04T03:29:40.321Z,102.67
2024-03-04T03:30:13.230Z,103.00
2024-03-04T03:30:45.734Z,103.00
2024-03-04T03:31:20.838Z,103.00
2024-03-04T03:31:53.393Z,104.00
2024-03-04T03:32:25.933Z,104.00
2024-03-04T03:32:58.466Z,104.00
2024-03-04T03:33:31.004Z,104.00
2024-03-04T03:34:03.522Z,104.33
2024-03-04T03:34:36.128Z,105.00
2024-03-04T03:35:09.241Z,105.00
2024-03-04T03:35:42.078Z,105.00
2024-03-04T03:36:14.650Z,104.67
2024-03-04T03:36:47.161Z,102.00
2024-03-04T03:37:19.696Z,100.33
2024-03-04T03:37:52.464Z,99.33
2024-03-04T03:38:24.947Z,99.00
2024-03-04T03:38:57.758Z,99.00
2024-03-04T03:39:30.276Z,99.00
2024-03-04T03:40:04.191Z,100.00
2024-03-04T03:40:37.620Z,100.33
2024-03-04T03:41:10.170Z,101.67
2024-03-04T03:41:42.675Z,103.33
2024-03-04T03:42:15.256Z,104.67
2024-03-04T03:42:47.726Z,105.00
2024-03-04T03:43:20.263Z,104.67
2024-03-04T03:43:52.949Z,104.00
2024-03-04T03:44:25.647Z,104.00
2024-03-04T03:44:58.116Z,104.00
2024-03-04T03:45:30.589Z,104.00
2024-03-04T03:46:03.131Z,104.00
2024-03-04T03:46:35.840Z,104.00
2024-03-04T03:47:08.499Z,104.00
2024-03-04T03:47:41.019Z,104.00
2024-03-04T03:48:16.518Z,104.00
2024-03-04T03:48:49.058Z,104.33
2024-03-04T03:49:21.571Z,108.67
2024-03-04T03:49:54.089Z,119.00
2024-03-04T03:50:26.592Z,134.00
2024-03-04T03:50:59.112Z,149.00
2024-03-04T03:51:31.630Z,166.33
2024-03-04T03:52:04.394Z,175.67
2024-03-04T03:52:36.983Z,180.00
2024-03-04T03:53:09.560Z,188.33
2024-03-04T03:53:42.068Z,206.00
2024-03-04T03:54:14.657Z,200.00
2024-03-04T03:54:47.515Z,184.33
2024-03-04T03:55:20.050Z,172.33
2024-03-04T03:55:53.380Z,166.33
2024-03-04T03:56:25.910Z,162.67
2024-03-04T03:56:58.446Z,160.00
2024-03-04T03:57:41.332Z,157.33
2024-03-04T03:58:19.653Z,155.33
2024-03-04T03:58:52.626Z,153.00
2024-03-04T03:59:25.176Z,148.33
2024-03-04T03:59:57.956Z,143.67
2024-03-04T04:00:33.931Z,138.00
2024-03-04T04:01:06.686Z,132.00
2024-03-04T04:01:39.391Z,129.33
2024-03-04T04:02:11.947Z,130.00
2024-03-04T04:02:44.496Z,136.00
2024-03-04T04:03:18.007Z,163.33
2024-03-04T04:03:50.477Z,187.33
2024-03-04T04:04:26.388Z,202.00
2024-03-04T04:04:58.921Z,212.00
2024-03-04T04:05:31.394Z,208.00
2024-03-04T04:06:04.076Z,197.67
2024-03-04T04:06:36.681Z,188.00
2024-03-04T04:07:09.281Z,180.00
2024-03-04T04:07:41.862Z,176.00
2024-03-04T04:08:14.476Z,169.33
2024-03-04T04:08:47.007Z,154.33
2024-03-04T04:09:19.495Z,146.33
2024-03-04T04:09:52.011Z,141.00
2024-03-04T04:10:24.736Z,138.33
2024-03-04T04:10:57.260Z,137.00
2024-03-04T04:11:29.754Z,134.33
2024-03-04T04:12:02.330Z,134.33
2024-03-04T04:12:34.848Z,136.67
2024-03-04T04:13:07.466Z,136.67
2024-03-04T04:13:40.088Z,136.67
2024-03-04T04:14:12.645Z,138.00
2024-03-04T04:14:45.111Z,139.33
2024-03-04T04:15:17.617Z,140.67
2024-03-04T04:15:53.009Z,143.33
2024-03-04T04:16:30.241Z,152.33
2024-03-04T04:17:02.775Z,155.33
2024-03-04T04:17:35.603Z,155.00
2024-03-04T04:18:08.301Z,155.00
2024-03-04T04:18:42.477Z,155.00
2024-03-04T04:19:16.655Z,156.00
2024-03-04T04:19:49.147Z,164.33
2024-03-04T04:20:21.962Z,172.67
2024-03-04T04:20:54.492Z,177.33
2024-03-04T04:21:27.441Z,177.33
2024-03-04T04:22:00.070Z,177.67
2024-03-04T04:22:32.663Z,177.33
2024-03-04T04:23:05.226Z,176.00
2024-03-04T04:23:37.697Z,173.67
2024-03-04T04:24:11.975Z,173.00
2024-03-04T04:24:46.257Z,173.67
2024-03-04T04:25:19.061Z,175.00
2024-03-04T04:25:51.927Z,175.00
2024-03-04T04:26:25.155Z,175.00
2024-03-04T04:26:57.679Z,176.00
2024-03-04T04:27:30.199Z,175.33
2024-03-04T04:28:04.004Z,175.00
2024-03-04T04:28:36.594Z,174.33
2024-03-04T04:29:09.912Z,174.00
2024-03-04T04:29:42.492Z,173.67
2024-03-04T04:30:15.020Z,173.00
2024-03-04T04:30:47.539Z,173.00
2024-03-04T04:31:24.878Z,173.00
2024-03-04T04:31:59.823Z,172.33
2024-03-04T04:32:32.321Z,171.33
2024-03-04T04:33:05.194Z,170.33
2024-03-04T04:33:37.702Z,170.00
2024-03-04T04:34:10.216Z,170.00
2024-03-04T04:34:43.138Z,169.33
2024-03-04T04:35:15.682Z,168.00
2024-03-04T04:35:48.188Z,167.67
2024-03-04T04:36:21.645Z,167.33
2024-03-04T04:36:54.326Z,167.00
2024-03-04T04:37:26.929Z,165.67
2024-03-04T04:37:59.447Z,163.00
2024-03-04T04:38:31.957Z,160.00
2024-03-04T04:39:05.615Z,157.67
2024-03-04T04:39:41.849Z,156.00
2024-03-04T04:40:23.066Z,153.67
2024-03-04T04:40:57.872Z,153.33
2024-03-04T04:41:33.416Z,155.00
2024-03-04T04:42:07.973Z,157.67
2024-03-04T04:42:40.882Z,159.00
2024-03-04T04:43:13.390Z,159.00
2024-03-04T04:43:45.970Z,159.00
2024-03-04T04:44:18.477Z,159.00
2024-03-04T04:44:51.719Z,158.00
2024-03-04T04:45:26.196Z,156.33
2024-03-04T04:45:59.269Z,153.67
2024-03-04T04:46:32.026Z,149.33
2024-03-04T04:47:04.721Z,148.00
2024-03-04T04:47:37.270Z,149.33
2024-03-04T04:48:09.982Z,149.67
2024-03-04T04:48:42.544Z,149.00
2024-03-04T04:49:16.528Z,149.00
2024-03-04T04:49:51.248Z,148.67
2024-03-04T04:50:23.749Z,148.00
2024-03-04T04:50:56.230Z,149.00
2024-03-04T04:51:28.831Z,148.33
2024-03-04T04:52:01.323Z,147.33
2024-03-04T04:52:33.893Z,147.00
2024-03-04T04:53:06.459Z,148.00
2024-03-04T04:53:38.941Z,148.00
2024-03-04T04:54:13.295Z,148.00
2024-03-04T04:54:45.919Z,148.00
2024-03-04T04:55:19.237Z,146.67
2024-03-04T04:55:53.034Z,145.67
2024-03-04T04:56:25.818Z,145.00
2024-03-04T04:56:58.359Z,144.00
2024-03-04T04:57:30.867Z,144.00
2024-03-04T04:58:04.768Z,144.00
2024-03-04T04:58:37.382Z,145.00
2024-03-04T04:59:09.890Z,145.00
2024-03-04T04:59:42.829Z,146.00
2024-03-04T05:00:15.902Z,146.33
2024-03-04T05:00:48.406Z,147.00
2024-03-04T05:01:28.115Z,148.00
2024-03-04T05:02:00.811Z,149.00
2024-03-04T05:02:33.400Z,149.67
2024-03-04T05:03:05.934Z,150.33
2024-03-04T05:03:52.503Z,151.00
2024-03-04T05:04:43.963Z,152.67
2024-03-04T05:05:24.076Z,153.00
2024-03-04T05:05:56.791Z,154.00
2024-03-04T05:06:29.435Z,156.33
2024-03-04T05:07:02.105Z,168.67
2024-03-04T05:07:34.789Z,175.67
2024-03-04T05:08:07.344Z,175.67
2024-03-04T05:08:39.897Z,173.00
2024-03-04T05:09:12.435Z,171.33
2024-03-04T05:09:44.946Z,170.00
2024-03-04T05:10:17.440Z,169.00
2024-03-04T05:10:50.077Z,168.00
2024-03-04T05:11:23.489Z,167.67
2024-03-04T05:11:56.059Z,167.00
2024-03-04T05:12:28.570Z,165.67
2024-03-04T05:13:01.125Z,163.00
2024-03-04T05:13:33.705Z,161.33
2024-03-04T05:14:10.125Z,160.33
2024-03-04T05:14:42.608Z,160.00
2024-03-04T05:15:15.123Z,159.00
2024-03-04T05:15:47.858Z,157.00
2024-03-04T05:16:20.676Z,153.00
2024-03-04T05:16:53.227Z,151.00
2024-03-04T05:17:25.826Z,151.00
2024-03-04T05:17:59.067Z,150.33
2024-03-04T05:18:31.675Z,149.00
2024-03-04T05:19:05.024Z,148.00
2024-03-04T05:19:38.990Z,149.00
2024-03-04T05:20:11.761Z,152.67
2024-03-04T05:20:54.250Z,162.00
2024-03-04T05:21:29.364Z,163.33
2024-03-04T05:22:02.379Z,162.33
2024-03-04T05:22:35.442Z,162.00
2024-03-04T05:23:07.991Z,162.00
2024-03-04T05:23:40.628Z,161.67
2024-03-04T05:24:13.160Z,161.00
2024-03-04T05:24:46.085Z,159.33
2024-03-04T05:25:18.693Z,158.00
2024-03-04T05:25:51.369Z,158.00
2024-03-04T05:26:25.700Z,158.00
2024-03-04T05:26:58.220Z,158.00
2024-03-04T05:27:32.159Z,158.00
2024-03-04T05:28:05.008Z,158.00
2024-03-04T05:28:37.684Z,158.00
2024-03-04T05:29:10.464Z,158.00
2024-03-04T05:29:42.945Z,158.00
2024-03-04T05:30:17.060Z,158.00
2024-03-04T05:30:49.659Z,158.00
2024-03-04T05:31:22.302Z,158.00
2024-03-04T05:31:58.241Z,158.33
2024-03-04T05:32:30.911Z,160.67
2024-03-04T05:33:05.164Z,162.33
2024-03-04T05:33:37.937Z,164.33
2024-03-04T05:34:10.434Z,175.33
2024-03-04T05:34:44.803Z,187.00
2024-03-04T05:35:17.399Z,190.33
2024-03-04T05:35:50.181Z,183.33
2024-03-04T05:36:22.700Z,178.67
2024-03-04T05:36:56.790Z,175.67
2024-03-04T05:37:29.472Z,172.00
2024-03-04T05:38:02.188Z,170.33
2024-03-04T05:38:35.309Z,170.00
2024-03-04T05:39:11.169Z,169.33
2024-03-04T05:39:47.606Z,166.67
2024-03-04T05:40:23.523Z,161.00
2024-03-04T05:40:56.032Z,154.67
2024-03-04T05:41:28.625Z,171.00
2024-03-04T05:42:01.143Z,224.00
2024-03-04T05:42:36.576Z,233.00
2024-03-04T05:43:09.287Z,221.33
2024-03-04T05:43:42.548Z,216.00
2024-03-04T05:44:16.114Z,218.33
2024-03-04T05:44:48.678Z,209.33
2024-03-04T05:45:21.499Z,197.67
2024-03-04T05:45:54.898Z,191.67
2024-03-04T05:46:27.446Z,175.00
2024-03-04T05:46:59.964Z,161.33
2024-03-04T05:47:32.477Z,155.67
2024-03-04T05:48:06.745Z,153.00
2024-03-04T05:48:39.326Z,154.00
2024-03-04T05:49:13.002Z,156.67
2024-03-04T05:49:45.622Z,159.33
2024-03-04T05:50:19.063Z,159.00
2024-03-04T05:50:51.613Z,158.33
2024-03-04T05:51:24.594Z,159.67
2024-03-04T05:51:59.932Z,161.00
2024-03-04T05:52:32.784Z,162.00
2024-03-04T05:53:05.693Z,162.00
2024-03-04T05:53:38.200Z,160.67
2024-03-04T05:54:10.790Z,158.00
2024-03-04T05:54:43.488Z,157.33
2024-03-04T05:55:17.601Z,156.00
2024-03-04T05:55:50.802Z,154.00
2024-03-04T05:56:23.710Z,152.00
2024-03-04T05:56:56.229Z,147.33
2024-03-04T05:57:28.707Z,147.33
2024-03-04T05:58:01.223Z,147.33
2024-03-04T05:58:33.862Z,146.33
2024-03-04T05:59:06.679Z,142.33
2024-03-04T05:59:39.228Z,144.00
2024-03-04T06:00:18.142Z,142.67
2024-03-04T06:00:50.857Z,145.00
2024-03-04T06:01:23.476Z,147.00
2024-03-04T06:01:56.090Z,149.00
2024-03-04T06:02:28.669Z,149.67
2024-03-04T06:03:01.209Z,166.67
2024-03-04T06:03:33.906Z,225.67
2024-03-04T06:04:06.728Z,304.33
2024-03-04T06:04:39.330Z,289.33
2024-03-04T06:05:12.721Z,238.33
2024-03-04T06:05:45.202Z,207.33
2024-03-04T06:06:17.738Z,199.33
2024-03-04T06:06:50.254Z,198.00
2024-03-04T06:07:23.432Z,197.00
2024-03-04T06:07:59.930Z,197.33
2024-03-04T06:08:34.214Z,198.67
2024-03-04T06:09:09.945Z,199.00
2024-03-04T06:09:42.830Z,198.00
2024-03-04T06:10:17.147Z,211.33
2024-03-04T06:10:49.868Z,220.67
2024-03-04T06:11:22.550Z,237.00
2024-03-04T06:11:57.246Z,260.67
2024-03-04T06:12:31.402Z,277.00
2024-03-04T06:13:05.377Z,274.33
2024-03-04T06:13:40.754Z,232.00
2024-03-04T06:14:13.473Z,224.00
2024-03-04T06:14:45.975Z,219.33
2024-03-04T06:15:18.460Z,214.33
2024-03-04T06:15:50.999Z,217.33
2024-03-04T06:16:23.654Z,228.67
2024-03-04T06:16:56.186Z,229.00
2024-03-04T06:17:29.343Z,226.33
2024-03-04T06:18:01.910Z,220.67
2024-03-04T06:18:34.452Z,209.67
2024-03-04T06:19:07.005Z,205.67
2024-03-04T06:19:39.653Z,203.00
2024-03-04T06:20:12.454Z,202.67
2024-03-04T06:20:45.510Z,199.33
2024-03-04T06:21:18.264Z,191.67
2024-03-04T06:22:00.635Z,189.67
2024-03-04T06:22:39.628Z,193.67
2024-03-04T06:23:12.490Z,191.00
2024-03-04T06:23:45.145Z,191.33
2024-03-04T06:24:17.693Z,192.00
2024-03-04T06:24:50.329Z,184.33
2024-03-04T06:25:22.920Z,172.33
2024-03-04T06:25:55.472Z,164.67
2024-03-04T06:26:28.008Z,165.67
2024-03-04T06:27:00.499Z,170.00
2024-03-04T06:27:34.960Z,166.33
2024-03-04T06:28:07.532Z,165.67
2024-03-04T06:28:40.494Z,174.67
2024-03-04T06:29:13.252Z,178.67
2024-03-04T06:29:45.780Z,181.00
2024-03-04T06:30:18.263Z,178.33
2024-03-04T06:30:51.248Z,168.33
2024-03-04T06:31:24.026Z,161.00
2024-03-04T06:31:56.634Z,167.00
2024-03-04T06:32:31.792Z,165.33
2024-03-04T06:33:04.552Z,163.67
2024-03-04T06:33:48.032Z,165.33
2024-03-04T06:34:26.039Z,160.33
2024-03-04T06:34:59.529Z,166.00
2024-03-04T06:35:32.209Z,166.00
2024-03-04T06:36:04.929Z,167.67
2024-03-04T06:36:43.040Z,170.00
2024-03-04T06:37:15.703Z,171.00
2024-03-04T06:37:48.328Z,170.00
2024-03-04T06:38:20.929Z,166.67
2024-03-04T06:39:27.300Z,168.00
2024-03-04T06:58:40.053Z,149.67
2024-03-04T06:59:12.780Z,144.67
2024-03-04T07:00:06.647Z,149.00
2024-03-04T07:00:39.224Z,150.67
2024-03-04T07:01:12.027Z,147.00
2024-03-04T07:01:44.725Z,142.33
2024-03-04T07:02:17.619Z,128.00
2024-03-04T07:02:50.298Z,126.33
2024-03-04T07:03:23.061Z,126.33
2024-03-04T07:04:05.572Z,124.67
2024-03-04T07:04:38.274Z,120.00
2024-03-04T07:05:10.959Z,120.00
2024-03-04T07:05:43.655Z,114.33
2024-03-04T07:06:19.440Z,103.67
2024-03-04T07:06:52.094Z,100.00
2024-03-04T07:07:28.087Z,103.33
2024-03-04T07:08:03.585Z,106.00
2024-03-04T07:08:36.659Z,118.00
2024-03-04T07:09:09.393Z,122.00
2024-03-04T07:09:42.205Z,125.00
2024-03-04T07:10:16.436Z,125.67
2024-03-04T07:10:49.235Z,118.67
2024-03-04T07:11:24.577Z,102.33
2024-03-04T07:11:57.256Z,92.00
2024-03-04T07:12:30.005Z,93.33
2024-03-04T07:13:02.846Z,100.67
2024-03-04T07:13:35.710Z,103.00
2024-03-04T07:14:08.262Z,108.33
2024-03-04T07:14:55.145Z,111.00
2024-03-04T07:15:27.988Z,109.67
2024-03-04T07:16:00.521Z,105.33
2024-03-04T07:16:33.189Z,101.67
2024-03-04T07:17:06.155Z,97.33
2024-03-04T07:17:38.743Z,93.67
2024-03-04T07:18:11.364Z,91.67
2024-03-04T07:18:44.425Z,94.33
2024-03-04T07:19:16.960Z,90.33
2024-03-04T07:19:49.568Z,84.33
2024-03-04T07:20:23.054Z,83.00
2024-03-04T07:20:55.623Z,84.00
2024-03-04T07:21:28.170Z,87.00